createdAt,value
2022-08-02T00:01:49.879Z,100986.47
2022-08-02T00:04:17.841Z,100991.38
2022-08-02T00:06:48.040Z,100988.72
2022-08-02T00:09:17.212Z,100997.19
2022-08-02T00:11:49.445Z,100994.06
2022-08-02T00:14:17.389Z,100990.56
2022-08-02T00:16:45.811Z,100993.88
2022-08-02T00:19:13.671Z,100998.41
2022-08-02T00:21:41.596Z,100994.94
2022-08-02T00:24:29.325Z,100991.78
2022-08-02T00:27:00.110Z,100996.53
2022-08-02T00:29:28.146Z,100993.63
2022-08-02T00:31:56.918Z,100983.53
2022-08-02T00:34:28.314Z,100988.91
2022-08-02T00:36:59.880Z,100999.28
2022-08-02T00:43:12.984Z,100979.84
2022-08-02T00:46:02.173Z,100985.22
2022-08-02T00:48:31.032Z,100983.53
2022-08-02T00:51:00.646Z,100979.38
2022-08-02T00:53:28.776Z,100984.00
2022-08-02T00:55:57.162Z,100981.75
2022-08-02T00:58:30.150Z,100987.34
2022-08-02T01:01:01.086Z,100990.25
2022-08-02T01:03:29.054Z,100980.34
2022-08-02T01:06:11.071Z,100985.66
2022-08-02T01:08:39.926Z,100981.13
2022-08-02T01:11:09.854Z,100989.63
2022-08-02T01:13:39.325Z,100985.25
2022-08-02T01:16:14.263Z,100996.16
2022-08-02T01:18:47.151Z,100988.50
2022-08-02T01:21:44.220Z,100979.47
2022-08-02T01:24:22.788Z,100980.28
2022-08-02T01:26:54.775Z,100988.13
2022-08-02T01:29:28.588Z,100979.63
2022-08-02T01:32:03.047Z,100976.13
2022-08-02T01:34:35.849Z,100978.44
2022-08-02T01:38:04.857Z,100980.28
2022-08-02T01:40:36.301Z,100979.66
2022-08-02T01:46:48.061Z,100973.63
2022-08-02T01:49:19.840Z,100968.66
2022-08-02T01:52:06.230Z,100977.75
2022-08-02T01:54:34.733Z,100983.53
2022-08-02T01:57:05.917Z,100977.75
2022-08-02T01:59:35.308Z,100977.19
2022-08-02T02:03:04.726Z,100977.00
2022-08-02T02:05:35.432Z,100974.31
2022-08-02T02:08:05.676Z,100970.41
2022-08-02T02:10:35.864Z,100965.28
2022-08-02T02:13:06.715Z,100971.72
2022-08-02T02:15:36.433Z,100963.47
2022-08-02T02:18:12.986Z,100965.94
2022-08-02T02:20:43.415Z,100956.84
2022-08-02T02:23:11.559Z,100951.50
2022-08-02T02:25:46.542Z,100948.13
2022-08-02T02:28:16.376Z,100949.44
2022-08-02T02:34:29.097Z,100948.84
2022-08-02T02:37:01.460Z,100942.66
2022-08-02T02:39:30.462Z,100940.59
2022-08-02T02:42:03.218Z,100929.66
2022-08-02T02:44:32.375Z,100921.84
2022-08-02T02:47:01.574Z,100923.69
2022-08-02T02:49:30.430Z,100921.41
2022-08-02T02:52:01.284Z,100920.59
2022-08-02T02:54:34.595Z,100915.25
2022-08-02T02:57:05.180Z,100915.25
2022-08-02T02:59:34.312Z,100920.19
2022-08-02T03:02:03.913Z,100925.13
2022-08-02T03:04:56.507Z,100929.88
2022-08-02T03:07:22.121Z,100932.34
2022-08-02T03:09:54.192Z,100935.00
2022-08-02T03:13:33.098Z,100937.91
2022-08-02T03:16:04.495Z,100954.41
2022-08-02T03:18:33.537Z,100947.81
2022-08-02T03:21:03.219Z,100943.03
2022-08-02T03:23:34.684Z,100940.75
2022-08-02T03:26:03.561Z,100945.75
2022-08-02T03:28:33.099Z,100932.97
2022-08-02T03:31:02.657Z,100923.88
2022-08-02T03:33:32.042Z,100917.91
2022-08-02T03:36:02.542Z,100914.00
2022-08-02T03:38:33.674Z,100918.50
2022-08-02T03:41:02.569Z,100909.88
2022-08-02T03:43:30.544Z,100911.09
2022-08-02T03:47:00.064Z,100918.72
2022-08-02T03:49:28.263Z,100916.03
2022-08-02T03:51:57.228Z,100911.09
2022-08-02T03:54:32.971Z,100913.16
2022-08-02T03:57:04.233Z,100919.16
2022-08-02T03:59:43.017Z,100917.88
2022-08-02T04:02:11.848Z,100920.13
2022-08-02T04:04:40.684Z,100927.56
2022-08-02T04:07:08.605Z,100921.84
2022-08-02T04:09:38.350Z,100917.69
2022-08-02T04:12:06.840Z,100918.53
2022-08-02T04:14:35.631Z,100917.09
2022-08-02T04:17:08.748Z,100918.09
2022-08-02T04:19:39.631Z,100919.97
2022-08-02T04:22:09.775Z,100918.94
2022-08-02T04:24:41.582Z,100930.06
2022-08-02T04:27:49.342Z,100934.19
2022-08-02T04:30:00.527Z,100937.91
2022-08-02T04:32:28.618Z,100938.13
2022-08-02T04:38:09.936Z,100935.84
2022-08-02T04:40:36.948Z,100927.53
2022-08-02T04:43:06.874Z,100932.84
2022-08-02T04:45:35.538Z,100918.56
2022-08-02T04:48:05.562Z,100922.91
2022-08-02T04:50:33.920Z,100926.16
2022-08-02T04:53:01.720Z,100918.28
2022-08-02T04:55:30.137Z,100915.19
2022-08-02T04:58:04.063Z,100912.66
2022-08-02T05:00:35.274Z,100919.41
2022-08-02T05:03:04.056Z,100924.69
2022-08-02T05:05:32.612Z,100920.44
2022-08-02T05:08:00.700Z,100926.47
2022-08-02T05:10:29.719Z,100925.91
2022-08-02T05:12:59.982Z,100914.47
2022-08-02T05:15:31.625Z,100912.31
2022-08-02T05:18:03.037Z,100908.38
2022-08-02T05:20:30.914Z,100906.81
2022-08-02T05:23:00.587Z,100903.25
2022-08-02T05:25:28.453Z,100905.41
2022-08-02T05:27:56.985Z,100911.91
2022-08-02T05:30:28.705Z,100912.19
2022-08-02T05:32:56.565Z,100920.78
2022-08-02T05:35:26.040Z,100925.16
2022-08-02T05:37:54.541Z,100925.78
2022-08-02T05:40:25.729Z,100929.06
2022-08-02T05:42:54.938Z,100926.47
2022-08-02T05:45:23.011Z,100922.59
2022-08-02T05:47:52.647Z,100920.09
2022-08-02T05:50:24.411Z,100916.53
2022-08-02T05:53:00.762Z,100919.50
2022-08-02T05:55:30.030Z,100915.03
2022-08-02T05:58:04.329Z,100909.78
2022-08-02T06:00:35.404Z,100910.13
2022-08-02T06:04:04.546Z,100909.56
2022-08-02T06:06:35.320Z,100905.41
2022-08-02T06:09:06.891Z,100914.91
2022-08-02T06:11:38.066Z,100914.41
2022-08-02T06:14:07.201Z,100926.72
2022-08-02T06:16:37.668Z,100919.59
2022-08-02T06:19:10.227Z,100926.81
2022-08-02T06:22:32.907Z,100927.81
2022-08-02T06:24:28.290Z,100918.47
2022-08-02T06:26:57.323Z,100918.94
2022-08-02T06:29:25.798Z,100913.34
2022-08-02T06:31:54.558Z,100918.72
2022-08-02T06:34:22.164Z,100915.31
2022-08-02T06:36:57.103Z,100921.72
2022-08-02T06:39:30.193Z,100909.47
2022-08-02T06:42:00.012Z,100912.06
2022-08-02T06:44:49.800Z,100911.19
2022-08-02T06:47:15.247Z,100915.50
2022-08-02T06:49:51.940Z,100919.25
2022-08-02T06:52:28.875Z,100920.72
2022-08-02T06:54:58.599Z,100926.19
2022-08-02T06:57:26.201Z,100926.63
2022-08-02T06:59:53.775Z,100919.00
2022-08-02T07:02:21.671Z,100917.63
2022-08-02T07:04:49.445Z,100918.31
2022-08-02T07:07:16.989Z,100914.66
2022-08-02T07:09:56.921Z,100915.56
2022-08-02T07:12:29.750Z,100911.94
2022-08-02T07:14:57.963Z,100903.47
2022-08-02T07:17:25.505Z,100903.25
2022-08-02T07:19:53.103Z,100910.69
2022-08-02T07:22:23.472Z,100904.00
2022-08-02T07:24:52.931Z,100902.75
2022-08-02T07:27:20.609Z,100913.03
2022-08-02T07:29:48.291Z,100907.91
2022-08-02T07:32:16.390Z,100906.09
2022-08-02T07:34:50.317Z,100906.22
2022-08-02T07:37:26.250Z,100905.69
2022-08-02T07:40:14.115Z,100912.94
2022-08-02T07:42:43.460Z,100913.13
2022-08-02T07:45:12.493Z,100915.03
2022-08-02T07:47:40.838Z,100901.94
2022-08-02T07:50:09.726Z,100890.03
2022-08-02T07:52:37.315Z,100903.59
2022-08-02T07:55:05.450Z,100898.41
2022-08-02T07:57:34.585Z,100889.84
2022-08-02T08:00:02.218Z,100897.19
2022-08-02T08:02:29.766Z,100898.22
2022-08-02T08:04:58.196Z,100894.78
2022-08-02T08:07:25.793Z,100888.00
2022-08-02T08:09:53.659Z,100893.06
2022-08-02T08:12:24.293Z,100890.69
2022-08-02T08:14:53.357Z,100888.22
2022-08-02T08:17:20.928Z,100894.78
2022-08-02T08:19:51.048Z,100893.09
2022-08-02T08:22:19.461Z,100885.72
2022-08-02T08:24:47.943Z,100882.50
2022-08-02T08:27:15.717Z,100892.56
2022-08-02T08:29:43.724Z,100890.25
2022-08-02T08:32:17.515Z,100883.81
2022-08-02T08:34:46.140Z,100888.75
2022-08-02T08:37:16.578Z,100864.03
2022-08-02T08:39:58.302Z,100886.00
2022-08-02T08:42:27.348Z,100883.28
2022-08-02T08:44:57.378Z,100878.28
2022-08-02T08:47:33.635Z,100880.75
2022-08-02T08:50:03.113Z,100894.47
2022-08-02T08:52:33.723Z,100889.81
2022-08-02T08:55:01.831Z,100886.59
2022-08-02T08:57:30.564Z,100884.03
2022-08-02T08:59:58.224Z,100877.13
2022-08-02T09:02:30.661Z,100866.28
2022-08-02T09:04:58.362Z,100876.81
2022-08-02T09:07:25.890Z,100864.25
2022-08-02T09:09:53.484Z,100872.91
2022-08-02T09:12:25.209Z,100866.06
2022-08-02T09:14:53.206Z,100874.78
2022-08-02T09:17:22.140Z,100868.63
2022-08-02T09:20:07.717Z,100876.66
2022-08-02T09:22:35.336Z,100873.88
2022-08-02T09:25:02.879Z,100862.56
2022-08-02T09:27:37.035Z,100866.69
2022-08-02T09:30:13.150Z,100873.75
2022-08-02T09:32:49.756Z,100870.78
2022-08-02T09:38:13.081Z,100882.75
2022-08-02T09:40:42.161Z,100890.41
2022-08-02T09:43:10.488Z,100869.66
2022-08-02T09:45:38.195Z,100870.41
2022-08-02T09:48:08.632Z,100850.22
2022-08-02T09:50:37.196Z,100864.41
2022-08-02T09:53:05.296Z,100865.78
2022-08-02T09:55:34.308Z,100877.69
2022-08-02T09:58:18.107Z,100859.13
2022-08-02T10:00:54.394Z,100858.28
2022-08-02T10:03:22.946Z,100861.13
2022-08-02T10:05:56.228Z,100859.03
2022-08-02T10:08:33.133Z,100856.38
2022-08-02T10:11:05.656Z,100851.13
2022-08-02T10:13:37.255Z,100858.84
2022-08-02T10:16:06.270Z,100866.53
2022-08-02T10:18:39.779Z,100855.03
2022-08-02T10:21:09.558Z,100863.88
2022-08-02T10:23:40.616Z,100857.06
2022-08-02T10:26:15.716Z,100849.13
2022-08-02T10:28:44.223Z,100852.00
2022-08-02T10:31:13.179Z,100840.91
2022-08-02T10:33:41.904Z,100842.63
2022-08-02T10:36:10.198Z,100836.22
2022-08-02T10:38:38.418Z,100834.50
2022-08-02T10:41:08.256Z,100832.38
2022-08-02T10:43:49.332Z,100828.31
2022-08-02T10:46:25.098Z,100834.91
2022-08-02T10:52:07.708Z,100820.84
2022-08-02T10:54:38.547Z,100816.97
2022-08-02T10:57:16.430Z,100823.25
2022-08-02T10:59:46.062Z,100818.19
2022-08-02T11:02:14.476Z,100814.53
2022-08-02T11:05:06.201Z,100813.41
2022-08-02T11:07:37.136Z,100810.06
2022-08-02T11:10:30.338Z,100812.38
2022-08-02T11:13:00.725Z,100810.28
2022-08-02T11:15:32.482Z,100814.13
2022-08-02T11:18:01.032Z,100805.34
2022-08-02T11:20:29.117Z,100818.91
2022-08-02T11:22:57.281Z,100800.44
2022-08-02T11:26:00.890Z,100807.56
2022-08-02T11:28:24.587Z,100811.72
2022-08-02T11:30:59.050Z,100804.91
2022-08-02T11:33:32.443Z,100807.03
2022-08-02T11:36:05.666Z,100808.53
2022-08-02T11:38:33.628Z,100810.66
2022-08-02T11:41:09.455Z,100809.00
2022-08-02T11:43:39.499Z,100809.88
2022-08-02T11:47:08.836Z,100815.84
2022-08-02T11:49:39.807Z,100800.13
2022-08-02T11:52:11.517Z,100808.88
2022-08-02T11:54:41.467Z,100802.50
2022-08-02T11:57:19.395Z,100802.69
2022-08-02T11:59:50.232Z,100797.06
2022-08-02T12:02:20.062Z,100787.81
2022-08-02T12:04:57.375Z,100793.50
2022-08-02T12:07:35.153Z,100789.09
2022-08-02T12:10:06.276Z,100788.63
2022-08-02T12:12:35.337Z,100788.13
2022-08-02T12:15:03.390Z,100783.84
2022-08-02T12:17:48.981Z,100788.41
2022-08-02T12:20:18.565Z,100780.34
2022-08-02T12:22:47.008Z,100780.03
2022-08-02T12:25:33.538Z,100775.78
2022-08-02T12:28:20.406Z,100766.09
2022-08-02T12:30:53.370Z,100766.25
2022-08-02T12:33:22.427Z,100768.41
2022-08-02T12:35:51.989Z,100761.06
2022-08-02T12:38:20.841Z,100766.25
2022-08-02T12:40:48.861Z,100788.34
2022-08-02T12:43:21.441Z,100779.44
2022-08-02T12:45:51.514Z,100777.72
2022-08-02T12:48:37.136Z,100778.38
2022-08-02T12:51:22.833Z,100783.53
2022-08-02T12:53:59.893Z,100788.16
2022-08-02T12:56:30.359Z,100782.16
2022-08-02T12:58:59.752Z,100774.75
2022-08-02T13:01:28.920Z,100773.00
2022-08-02T13:04:09.459Z,100775.59
2022-08-02T13:06:44.529Z,100764.38
2022-08-02T13:09:15.390Z,100766.66
2022-08-02T13:11:43.993Z,100753.94
2022-08-02T13:14:12.732Z,100765.78
2022-08-02T13:16:41.662Z,100749.50
2022-08-02T13:19:09.533Z,100761.91
2022-08-02T13:21:41.605Z,100763.13
2022-08-02T13:24:38.334Z,100745.50
2022-08-02T13:27:08.663Z,100748.88
2022-08-02T13:29:36.925Z,100739.03
2022-08-02T13:32:04.949Z,100738.44
2022-08-02T13:34:32.750Z,100743.00
2022-08-02T13:37:03.708Z,100736.38
2022-08-02T13:39:33.018Z,100738.50
2022-08-02T13:42:00.755Z,100737.41
2022-08-02T13:44:29.743Z,100741.56
2022-08-02T13:47:00.094Z,100730.06
2022-08-02T13:49:51.327Z,100736.34
2022-08-02T13:52:17.282Z,100725.00
2022-08-02T13:54:46.672Z,100728.34
2022-08-02T13:57:14.519Z,100728.84
2022-08-02T13:59:55.954Z,100740.03
2022-08-02T14:02:28.368Z,100729.91
2022-08-02T14:04:57.168Z,100722.78
2022-08-02T14:07:24.841Z,100708.28
2022-08-02T14:09:54.117Z,100713.19
2022-08-02T14:12:22.088Z,100713.38
2022-08-02T14:14:49.733Z,100708.53
2022-08-02T14:17:18.780Z,100702.19
2022-08-02T14:19:46.625Z,100704.25
2022-08-02T14:22:14.415Z,100714.00
2022-08-02T14:24:42.634Z,100694.34
2022-08-02T14:27:11.921Z,100711.38
2022-08-02T14:29:40.411Z,100697.28
2022-08-02T14:32:08.839Z,100703.81
2022-08-02T14:34:36.666Z,100693.97
2022-08-02T14:37:04.785Z,100687.16
2022-08-02T14:39:43.321Z,100693.00
2022-08-02T14:42:25.049Z,100687.25
2022-08-02T14:44:54.670Z,100687.00
2022-08-02T14:47:22.420Z,100689.97
2022-08-02T14:49:57.837Z,100682.47
2022-08-02T14:52:25.900Z,100677.00
2022-08-02T14:54:53.877Z,100696.22
2022-08-02T14:57:25.315Z,100678.84
2022-08-02T14:59:53.223Z,100666.03
2022-08-02T15:02:21.184Z,100666.97
2022-08-02T15:04:49.066Z,100672.03
2022-08-02T15:07:17.924Z,100676.53
2022-08-02T15:09:45.983Z,100680.78
2022-08-02T15:12:15.553Z,100669.09
2022-08-02T15:14:47.996Z,100672.09
2022-08-02T15:17:15.972Z,100669.44
2022-08-02T15:19:57.695Z,100655.59
2022-08-02T15:22:28.871Z,100659.94
2022-08-02T15:24:56.921Z,100656.88
2022-08-02T15:27:25.190Z,100656.63
2022-08-02T15:30:00.692Z,100652.81
2022-08-02T15:32:29.776Z,100652.03
2022-08-02T15:34:58.224Z,100660.38
2022-08-02T15:37:30.807Z,100661.53
2022-08-02T15:40:00.316Z,100658.03
2022-08-02T15:42:30.705Z,100660.44
2022-08-02T15:45:01.319Z,100646.22
2022-08-02T15:47:29.525Z,100653.94
2022-08-02T15:49:58.622Z,100646.63
2022-08-02T15:52:27.547Z,100645.28
2022-08-02T15:54:55.746Z,100646.06
2022-08-02T15:57:24.288Z,100645.53
2022-08-02T15:59:53.219Z,100641.00
2022-08-02T16:02:22.674Z,100641.56
2022-08-02T16:04:50.419Z,100647.34
2022-08-02T16:07:18.074Z,100626.06
2022-08-02T16:09:45.816Z,100631.22
2022-08-02T16:12:13.911Z,100646.03
2022-08-02T16:14:41.882Z,100634.09
2022-08-02T16:17:09.703Z,100632.25
2022-08-02T16:19:48.753Z,100623.69
2022-08-02T16:22:18.680Z,100626.88
2022-08-02T16:24:47.741Z,100629.75
2022-08-02T16:27:15.716Z,100623.16
2022-08-02T16:29:43.622Z,100622.53
2022-08-02T16:32:12.406Z,100622.91
2022-08-02T16:35:07.211Z,100605.31
2022-08-02T16:37:51.925Z,100615.63
2022-08-02T16:40:18.065Z,100608.66
2022-08-02T16:42:50.190Z,100607.09
2022-08-02T16:45:21.408Z,100593.28
2022-08-02T16:47:54.960Z,100594.22
2022-08-02T16:50:28.298Z,100598.31
2022-08-02T16:52:58.060Z,100593.84
2022-08-02T16:55:29.221Z,100588.22
2022-08-02T16:58:01.053Z,100588.50
2022-08-02T17:00:29.867Z,100579.53
2022-08-02T17:05:56.566Z,100573.91
2022-08-02T17:08:31.745Z,100573.97
2022-08-02T17:11:03.676Z,100587.63
2022-08-02T17:13:32.165Z,100579.78
2022-08-02T17:16:20.759Z,100591.53
2022-08-02T17:18:50.451Z,100586.38
2022-08-02T17:21:19.942Z,100589.41
2022-08-02T17:24:04.994Z,100598.19
2022-08-02T17:26:38.202Z,100596.06
2022-08-02T17:29:15.142Z,100588.66
2022-08-02T17:32:02.506Z,100587.16
2022-08-02T17:34:36.146Z,100584.78
2022-08-02T17:37:07.838Z,100592.63
2022-08-02T17:39:44.146Z,100579.28
2022-08-02T17:42:20.093Z,100593.97
2022-08-02T17:44:50.711Z,100575.88
2022-08-02T17:47:19.303Z,100572.72
2022-08-02T17:49:48.386Z,100571.81
2022-08-02T17:52:51.107Z,100573.75
2022-08-02T17:55:07.025Z,100579.53
2022-08-02T18:00:24.708Z,100567.41
2022-08-02T18:02:55.688Z,100571.81
2022-08-02T18:05:40.023Z,100568.88
2022-08-02T18:08:18.353Z,100573.00
2022-08-02T18:10:50.018Z,100582.44
2022-08-02T18:13:17.840Z,100571.78
2022-08-02T18:15:45.982Z,100580.72
2022-08-02T18:18:14.571Z,100579.31
2022-08-02T18:20:44.830Z,100588.09
2022-08-02T18:23:15.877Z,100590.66
2022-08-02T18:25:45.880Z,100590.66
2022-08-02T18:28:17.063Z,100581.94
2022-08-02T18:34:27.942Z,100583.00
2022-08-02T18:36:55.825Z,100582.16
2022-08-02T18:39:27.151Z,100595.72
2022-08-02T18:42:02.029Z,100593.66
2022-08-02T18:44:31.024Z,100585.19
2022-08-02T18:46:59.579Z,100582.06
2022-08-02T18:49:46.109Z,100589.13
2022-08-02T18:52:16.152Z,100577.28
2022-08-02T18:55:01.366Z,100592.81
2022-08-02T18:58:16.974Z,100584.38
2022-08-02T19:00:20.574Z,100590.59
2022-08-02T19:02:54.092Z,100592.97
2022-08-02T19:05:52.373Z,100588.41
2022-08-02T19:08:12.849Z,100593.47
2022-08-02T19:10:49.012Z,100601.00
2022-08-02T19:13:18.607Z,100591.41
2022-08-02T19:15:47.881Z,100583.34
2022-08-02T19:18:15.908Z,100584.16
2022-08-02T19:20:48.009Z,100592.31
2022-08-02T19:23:18.895Z,100576.44
2022-08-02T19:25:54.783Z,100574.03
2022-08-02T19:28:26.318Z,100578.56
2022-08-02T19:30:57.466Z,100577.28
2022-08-02T19:34:04.784Z,100586.69
2022-08-02T19:36:16.966Z,100598.41
2022-08-02T19:38:49.183Z,100583.47
2022-08-02T19:41:22.237Z,100583.13
2022-08-02T19:47:38.460Z,100597.91
2022-08-02T19:50:07.898Z,100602.84
2022-08-02T19:52:38.021Z,100591.28
2022-08-02T19:55:58.269Z,100594.28
2022-08-02T19:57:59.717Z,100600.94
2022-08-02T20:00:28.038Z,100594.28
2022-08-02T20:02:56.063Z,100604.09
2022-08-02T20:05:28.251Z,100612.59
2022-08-02T20:07:57.659Z,100610.19
2022-08-02T20:10:25.391Z,100605.78
2022-08-02T20:12:54.634Z,100610.72
2022-08-02T20:15:55.812Z,100607.44
2022-08-02T20:18:15.937Z,100606.63
2022-08-02T20:20:55.088Z,100599.84
2022-08-02T20:23:32.587Z,100609.03
2022-08-02T20:26:02.896Z,100614.44
2022-08-02T20:28:31.972Z,100614.97
2022-08-02T20:31:07.107Z,100610.59
2022-08-02T20:33:37.100Z,100614.69
2022-08-02T20:36:24.575Z,100610.69
2022-08-02T20:38:52.763Z,100616.91
2022-08-02T20:41:23.853Z,100621.22
2022-08-02T20:44:05.504Z,100622.00
2022-08-02T20:46:48.848Z,100617.13
2022-08-02T20:49:23.325Z,100610.34
2022-08-02T20:51:52.754Z,100618.81
2022-08-02T20:54:23.045Z,100614.97
2022-08-02T20:56:51.736Z,100610.53
2022-08-02T20:59:21.274Z,100614.94
2022-08-02T21:01:57.522Z,100616.00
2022-08-02T21:04:26.329Z,100608.41
2022-08-02T21:06:55.840Z,100609.22
2022-08-02T21:09:52.513Z,100611.53
2022-08-02T21:12:12.951Z,100617.97
2022-08-02T21:14:40.839Z,100620.44
2022-08-02T21:17:11.378Z,100606.53
2022-08-02T21:19:46.019Z,100616.88
2022-08-02T21:22:15.609Z,100614.16
2022-08-02T21:24:45.770Z,100604.38
2022-08-02T21:27:51.884Z,100608.78
2022-08-02T21:30:03.359Z,100605.25
2022-08-02T21:32:33.695Z,100604.16
2022-08-02T21:35:01.802Z,100603.91
2022-08-02T21:37:33.267Z,100601.72
2022-08-02T21:40:13.646Z,100610.78
2022-08-02T21:42:41.580Z,100612.31
2022-08-02T21:45:17.020Z,100611.09
2022-08-02T21:47:51.744Z,100605.41
2022-08-02T21:50:19.633Z,100606.34
2022-08-02T21:52:52.298Z,100607.53
2022-08-02T21:56:00.263Z,100609.91
2022-08-02T21:58:23.520Z,100601.56
2022-08-02T22:00:51.652Z,100597.47
2022-08-02T22:03:24.646Z,100603.16
2022-08-02T22:05:57.548Z,100614.28
2022-08-02T22:09:42.272Z,100615.63
2022-08-02T22:16:06.174Z,100620.22
2022-08-02T22:18:35.647Z,100628.03
2022-08-02T22:21:14.462Z,100623.16
2022-08-02T22:23:50.352Z,100614.59
2022-08-02T22:26:19.842Z,100609.38
2022-08-02T22:28:50.522Z,100620.75
2022-08-02T22:31:41.052Z,100628.25
2022-08-02T22:34:26.600Z,100623.22
2022-08-02T22:37:01.784Z,100620.44
2022-08-02T22:39:37.068Z,100625.28
2022-08-02T22:42:25.833Z,100624.66
2022-08-02T22:44:53.748Z,100616.91
2022-08-02T22:47:22.370Z,100624.50
2022-08-02T22:49:59.439Z,100631.41
2022-08-02T22:52:28.085Z,100626.72
2022-08-02T22:54:56.041Z,100626.94
2022-08-02T22:57:30.677Z,100621.66
2022-08-02T22:58:36.283Z,100576.78
2022-08-02T22:58:48.666Z,100571.28
2022-08-02T22:59:12.607Z,100622.56
2022-08-02T22:59:59.431Z,100625.66
2022-08-02T23:02:27.201Z,100623.72
2022-08-02T23:04:57.789Z,100620.19
2022-08-02T23:07:27.143Z,100623.88
2022-08-02T23:09:55.232Z,100614.22
2022-08-02T23:12:23.594Z,100619.22
2022-08-02T23:14:52.264Z,100615.81
2022-08-02T23:17:38.228Z,100620.31
2022-08-02T23:20:09.687Z,100617.34
2022-08-02T23:22:38.140Z,100606.38
2022-08-02T23:25:07.940Z,100611.38
2022-08-02T23:27:36.117Z,100614.03
2022-08-02T23:30:11.270Z,100614.69
2022-08-02T23:32:39.916Z,100609.63
2022-08-02T23:35:10.665Z,100612.59
2022-08-02T23:38:00.489Z,100606.88
2022-08-02T23:40:40.707Z,100618.63
2022-08-02T23:43:13.866Z,100619.66
2022-08-02T23:45:44.086Z,100619.19
2022-08-02T23:48:12.959Z,100617.41
2022-08-02T23:50:42.303Z,100613.81
2022-08-02T23:53:11.676Z,100614.53
2022-08-02T23:55:39.673Z,100615.25
2022-08-02T23:58:07.523Z,100611.59
